Terminal Aerodrome Forecast
Issued by NWS

Home | Current Version | Previous Version | Text Only | Print | Product List | Glossary On
Versions: 1 2 3 4 5 6 7 8 9 10 11 12 13 14 15 16 17
082
FTUS43 KDLH 211137
TAFHYR
TAF
KHYR 211137Z 2112/2212 17007KT P6SM BKN150
     FM211500 17011KT P6SM -SHRA OVC028
     FM220000 18009KT P6SM SHRA VCTS OVC028CB
     FM220400 19007KT 3SM SHRA VCTS OVC028CB
     FM220700 24006KT P6SM SHRA OVC019
     FM221000 25005KT P6SM SHRA BKN050=

USA.gov is the U.S. government's official web portal to all federal, state and local government web resources and services.